Weather observations for the past three days for
Salem, Salem-Leckrone Airport
Metric (Imperial)
Date Time (cdt) Wind (kph) Vis. (km) Weather Sky Cond. Temperature (ºC) Relative Humidity Wind Chill (°C) Heat Index (°C) Pressure Precipitation (cm)
Air Dwpt 6 hour altimeter (cm) sea level (mb) 1 hr 3 hr 6 hr
Max. Min.
04 12:15 S 28 G 43 16.09 Fair CLR 22.5 12.8 54% 75.51 0.0
04 11:55 SW 33 G 43 16.09 Fair and Breezy CLR 23.1 13.6 55% 75.57 0.0
04 11:35 S 24 G 31 16.09 Thunderstorm in Vicinity CLR 23 13.4 55% 75.59 0.0
04 11:15 SW 30 G 39 16.09 Fair CLR 22.5 12.7 54% 75.62 0.0
04 10:55 SW 26 G 33 16.09 Fair CLR 23 13.4 55% 75.62 0.0
04 10:35 SW 28 16.09 Fair CLR 22.5 13.7 58% 75.64 0.0
04 10:15 S 22 G 33 16.09 Fair CLR 22 13.7 59% 75.62 0.0
04 09:55 SW 28 G 33 16.09 Partly Cloudy SCT120 21.2 13.4 61% 75.62 0.0
04 09:35 SW 20 16.09 Fair CLR 21.4 13.3 60% 75.62 0.0
04 09:15 SW 24 G 31 16.09 Partly Cloudy SCT120 20.6 12.9 61% 75.64 0.0
04 08:55 S 19 16.09 Partly Cloudy SCT120 19.3 13.3 68% 75.64 0.0
04 08:35 S 22 G 31 16.09 Partly Cloudy SCT110 18.5 12.6 69% 75.67 0.0
04 08:15 S 19 G 28 16.09 Fair CLR 18.1 12.5 70% 75.67 0.0
04 07:55 S 20 16.09 Fair CLR 17 12.1 73% 75.69 0.0
04 07:35 S 22 16.09 Fair CLR 16.8 12 74% 75.69 0.0
04 07:15 S 20 16.09 Partly Cloudy SCT110 16.6 11.8 73% 75.69 0.0
04 06:55 S 13 16.09 Mostly Cloudy BKN110 16 11.9 17 14.1 77% 75.69 0.0 0.1
04 06:35 S 11 16.09 Partly Cloudy SCT100 SCT120 15.5 11.8 79% 75.72 0.0
04 06:15 S 9 16.09 Partly Cloudy SCT100 SCT120 15.5 11.7 78% 75.69 0.0
04 05:55 SE 9 16.09 Mostly Cloudy BKN120 15.5 11.6 78% 75.69 0.0
04 05:35 S 9 16.09 Mostly Cloudy BKN120 15.4 11.6 78% 75.69 0.0
04 05:15 S 11 16.09 Partly Cloudy SCT120 15.6 11.5 77% 75.69 0.0
04 04:55 SE 13 16.09 Mostly Cloudy BKN110 15.5 11.6 78% 75.72 0.0
04 04:35 SE 13 16.09 Mostly Cloudy BKN100 15.2 11.7 80% 75.74 0.0
04 04:15 SE 11 16.09 Thunderstorm Light Rain SCT023 SCT050 OVC100 14.8 12.5 86% 75.77 0.0
04 03:55 E 6 16.09 Mostly Cloudy BKN110 14.5 12.7 89% 75.77 0.0 0.03 0.1
04 03:35 S 9 16.09 Partly Cloudy SCT110 14.5 12.6 88% 75.74 0.0 0.03
04 03:15 SE 13 16.09 Thunderstorm Light Rain in Vicinity SCT070 BKN100 14.5 13.2 92% 75.72 0.0 0.03
04 02:55 SE 6 16.09 Overcast OVC070 14.4 13.2 93% 75.79 0.0
04 02:35 Calm 16.09 Overcast SCT070 BKN090 OVC110 14.6 12.9 90% 75.82 0.0
04 02:15 SE 9 16.09 Thunderstorm Light Rain SCT050 SCT085 OVC100 14.6 12.7 88% 75.74 0.0
04 01:55 NW 13 G 30 11.27 Thunderstorm Heavy Rain SCT047 SCT060 OVC085 16.1 11.5 74% 75.9 0.0 0.08
04 01:15 S 6 16.09 Thunderstorm Light Rain BKN085 BKN120 16.5 10.2 67% 75.74 0.0
04 00:55 SW 9 16.09 Fair CLR 16.4 9.8 20 16.4 65% 75.74 0.0
04 00:35 SW 7 16.09 Partly Cloudy SCT085 SCT110 16.5 9.3 63% 75.74 0.0
04 00:15 S 13 16.09 Partly Cloudy SCT095 17 9 60% 75.67 0.0
03 23:55 S 15 16.09 Fair CLR 16.9 8.5 58% 75.72 0.0
03 23:35 S 15 16.09 Fair CLR 16.9 8.2 57% 75.74 0.0
03 23:15 S 13 16.09 Fair CLR 17 7.9 55% 75.77 0.0
03 22:55 S 13 16.09 Fair CLR 17.4 7.6 53% 75.77 0.0
03 22:35 S 17 16.09 Fair CLR 17.8 7.4 51% 75.79 0.0
03 22:15 S 19 G 30 16.09 Fair CLR 17.8 7.4 51% 75.77 0.0
03 21:55 S 19 G 28 16.09 Partly Cloudy SCT090 18 7.2 49% 75.77 0.0
03 21:35 S 20 G 26 16.09 Partly Cloudy SCT090 18 7 49% 75.77 0.0
03 21:15 S 17 G 26 16.09 Thunderstorm BKN090 18.1 7.1 49% 75.77 0.0
03 20:55 S 13 16.09 Thunderstorm in Vicinity SCT090 18.2 6.8 48% 75.77 0.0
03 20:35 S 17 16.09 Fair CLR 18.2 6.9 48% 75.77 0.0
03 20:15 S 19 16.09 Thunderstorm in Vicinity CLR 18.5 6.7 46% 75.77 0.0
03 19:55 S 17 16.09 Fair CLR 19 6.8 45% 75.79 0.0
03 19:35 S 19 G 28 16.09 Fair CLR 19.5 6.6 43% 75.79 0.0
03 19:15 S 19 G 30 16.09 Fair CLR 19.8 6.8 43% 75.79 0.0
03 18:55 S 19 G 31 16.09 Fair CLR 20 7.1 21 17.9 43% 75.82 0.0
03 18:35 S 24 G 39 16.09 Fair CLR 20.3 6.8 42% 75.82 0.0
03 18:15 SW 26 G 41 16.09 Fair CLR 20.6 7.5 43% 75.84 0.0
03 17:55 SW 30 G 35 16.09 Fair CLR 20.6 7.1 42% 75.84 0.0
03 17:35 S 30 G 43 16.09 Fair CLR 20.5 6.5 40% 75.82 0.0
03 17:15 S 30 G 44 16.09 Fair CLR 20.5 6.5 40% 75.82 0.0
03 16:55 S 33 G 44 16.09 Fair and Breezy CLR 20.8 7.2 42% 75.84 0.0
03 16:35 S 33 G 44 16.09 Fair and Breezy CLR 20.6 7 41% 75.87 0.0
03 16:15 S 28 G 37 16.09 Fair CLR 21 8.2 44% 75.9 0.0
03 15:55 S 35 G 44 16.09 Fair and Breezy CLR 20.3 7.1 43% 75.92 0.0
03 15:35 S 26 G 41 16.09 Fair CLR 20.1 7.4 44% 75.97 0.0
03 15:15 SW 30 G 41 16.09 Fair CLR 19.9 7.4 45% 76.02 0.0
03 14:55 SW 35 G 44 16.09 Fair and Breezy CLR 19.9 7 43% 76.05 0.0
03 14:35 SW 30 G 44 16.09 Fair CLR 19.6 8.1 48% 76.1 0.0
03 14:15 S 31 G 43 16.09 Fair CLR 19.4 7.8 47% 76.12 0.0
03 13:55 SW 33 G 46 16.09 Fair and Breezy CLR 19 7.2 46% 76.17 0.0
03 13:35 SW 30 G 46 16.09 Fair CLR 18.8 7.6 48% 76.2 0.0
03 13:15 SW 30 G 48 16.09 Fair CLR 18.3 7.2 49% 76.23 0.0
03 12:55 SW 37 G 48 16.09 Fair and Breezy CLR 17.8 6.6 17.9 8.1 48% 76.28 0.0
03 12:35 S 28 G 39 16.09 Fair CLR 17.6 7.6 52% 76.3 0.0
03 12:15 SW 30 G 44 16.09 Fair CLR 17.4 7 51% 76.35 0.0
03 11:55 S 30 G 37 16.09 Fair CLR 17 7.2 53% 76.35 0.0
03 11:35 SW 24 G 37 16.09 Fair CLR 16.6 7.2 54% 76.38 0.0
03 11:15 SW 31 G 37 16.09 Fair CLR 16.1 6.9 55% 76.4 0.0
03 10:55 S 26 G 37 16.09 Fair CLR 15.7 7.1 57% 76.43 0.0
03 10:35 SW 30 G 35 16.09 Fair CLR 15.7 7.1 57% 76.45 0.0
03 10:15 SW 26 G 35 16.09 Fair CLR 15 6.5 57% 76.45 0.0
03 09:55 S 28 G 37 16.09 Fair CLR 14.5 6.4 59% 76.45 0.0
03 09:35 S 30 16.09 Fair CLR 14 6.1 59% 76.45 0.0
03 09:15 S 24 G 30 16.09 Fair CLR 13.3 6.3 63% 76.45 0.0
03 08:55 S 22 16.09 Fair CLR 12.6 5.8 64% 76.5 0.0
03 08:35 SW 17 16.09 Fair CLR 12 6.2 68% 76.5 0.0
03 08:15 S 17 16.09 Fair CLR 11.1 5.8 70% 76.48 0.0
03 07:55 S 15 G 28 16.09 Fair CLR 10.3 5.9 74% 76.48 0.0
03 07:35 S 17 16.09 Fair CLR 9.5 5.5 76% 7 76.48 0.0
03 07:15 S 13 16.09 Fair CLR 8.7 5.3 79% 7 76.48 0.0
03 06:55 S 13 16.09 Fair CLR 8 5.1 8 5.7 82% 6 76.45 0.0
03 06:35 S 6 16.09 Fair CLR 7.1 4.8 85% 76.45 0.0
03 06:15 Calm 16.09 Fair CLR 6.6 4.7 88% 76.45 0.0
03 05:55 Calm 16.09 Fair CLR 6.5 4.7 88% 76.45 0.0
03 05:35 S 7 16.09 Fair CLR 6.5 4.7 88% 5 76.45 0.0
03 05:15 S 7 16.09 Fair CLR 6.2 4.8 91% 5 76.45 0.0
03 04:55 Calm 16.09 Fair CLR 6 5 93% 76.45 0.0
03 04:35 Calm 16.09 Fair CLR 5.9 5.1 95% 76.45 0.0
03 04:15 Calm 16.09 Fair CLR 6 5 93% 76.48 0.0
03 03:55 Calm 16.09 Fair CLR 6 5.1 94% 76.48 0.0
03 03:35 Calm 16.09 Fair CLR 6.5 5.1 91% 76.48 0.0
03 03:15 Calm 16.09 Fair CLR 6.7 5.1 90% 76.48 0.0
03 02:55 Calm 16.09 Fair CLR 6.8 5.1 89% 76.45 0.0
03 02:35 Calm 16.09 Fair CLR 6.7 5.1 90% 76.45 0.0
03 02:15 Calm 16.09 Fair CLR 6.7 5.2 90% 76.48 0.0
03 01:55 Calm 16.09 Fair CLR 7.1 5.1 87% 76.48 0.0
03 01:35 Calm 16.09 Fair CLR 7.1 5.1 87% 76.48 0.0
03 01:15 Calm 16.09 Fair CLR 7.1 5 87% 76.5 0.0
03 00:55 Calm 16.09 Fair CLR 6.9 4.6 14 6.3 85% 76.5 0.0
03 00:35 Calm 16.09 Fair CLR 7 4.7 85% 76.5 0.0
03 00:15 S 6 16.09 Fair CLR 6.4 5.3 93% 76.5 0.0
02 23:55 Calm 16.09 Fair CLR 6.5 5.2 92% 76.5 0.0
02 23:35 Calm 16.09 Fair CLR 6.5 5 90% 76.5 0.0
02 23:15 Calm 16.09 Fair CLR 6.8 4.9 88% 76.5 0.0
02 22:55 Calm 16.09 Fair CLR 7.1 4.9 86% 76.5 0.0
02 22:35 Calm 16.09 Fair CLR 7.5 5.4 87% 76.5 0.0
02 22:15 Calm 16.09 Fair CLR 7.7 4.3 79% 76.5 0.0
02 21:55 Calm 16.09 Fair CLR 8 5 82% 76.5 0.0
02 21:35 Calm 16.09 Fair CLR 8.4 5.5 82% 76.5 0.0
02 21:15 Calm 16.09 Fair CLR 8.7 5.1 78% 76.48 0.0
02 20:55 Calm 16.09 Fair CLR 9.5 5.3 75% 76.48 0.0
02 20:35 Calm 16.09 Fair CLR 9.6 5.1 74% 76.45 0.0
02 20:15 Calm 16.09 Fair CLR 10.5 4.6 67% 76.45 0.0
02 19:55 Calm 16.09 Fair CLR 11.8 4.8 62% 76.45 0.0
02 19:35 N 6 16.09 Fair CLR 12.9 4.2 56% 76.43 0.0
02 19:15 NW 9 16.09 Fair CLR 13.6 3.6 51% 76.43 0.0
02 18:55 N 9 16.09 Fair CLR 14 2.6 15.2 12.7 46% 76.43 0.0
02 18:35 N 11 16.09 Fair CLR 14.2 2.4 45% 76.43 0.0
02 18:15 NW 6 16.09 Fair CLR 14.5 2.3 44% 76.43 0.0
02 17:55 NW 13 16.09 Fair CLR 14.5 2.3 44% 76.43 0.0
02 17:35 N 7 16.09 Partly Cloudy SCT060 SCT070 14.7 3.5 47% 76.43 0.0
02 17:15 NW 11 16.09 Partly Cloudy SCT060 SCT080 14.6 3 46% 76.4 0.0
02 16:55 N 11 16.09 Mostly Cloudy SCT060 SCT070 BKN080 13.8 3.3 49% 76.43 0.0
02 16:35 NE 13 16.09 Mostly Cloudy SCT060 BKN080 14 3.4 49% 76.4 0.0
02 16:15 N 7 16.09 Mostly Cloudy SCT060 SCT080 BKN090 15.1 3.5 46% 76.4 0.0
02 15:55 E 11 16.09 Overcast SCT060 BKN080 OVC090 14.2 3.2 48% 76.43 0.0
02 15:35 N 7 16.09 Overcast SCT060 BKN070 OVC080 14.4 3.1 47% 76.43 0.0
02 15:15 N 11 16.09 Overcast OVC060 13.6 3.3 50% 76.45 0.0
02 14:55 N 7 16.09 Overcast SCT060 OVC075 13.7 2.9 48% 76.45 0.0
02 14:35 Calm 16.09 Overcast SCT050 OVC075 13.5 2.7 48% 76.45 0.0
02 14:15 N 13 16.09 Overcast SCT050 OVC075 13.6 3.5 51% 76.45 0.0
02 13:55 N 13 16.09 Overcast OVC065 13.5 4.4 54% 76.45 0.0
02 13:35 N 17 16.09 Overcast SCT039 SCT050 OVC065 13.1 5 58% 76.45 0.0
02 13:15 N 13 16.09 Overcast SCT034 BKN042 OVC075 13.1 6.1 63% 76.45 0.0
02 12:55 NE 7 16.09 Overcast SCT028 BKN036 OVC075 12.7 6 13 8.5 64% 76.45 0.0 0.13
02 12:35 NE 9 16.09 Overcast SCT023 BKN032 OVC050 12.1 6.8 70% 76.48 0.0
02 12:15 NE 7 16.09 Overcast BKN021 BKN027 OVC033 13 7.8 71% 76.48 0.0
02 11:55 Calm 16.09 Overcast SCT019 BKN026 OVC100 11.8 7.8 77% 76.5 0.0
02 11:35 Calm 16.09 Overcast OVC090 11.4 7.5 77% 76.53 0.0
02 11:15 Calm 16.09 Overcast OVC090 10.9 7.4 79% 76.53 0.0
02 10:55 Calm 16.09 Overcast OVC090 10.4 7.4 82% 76.5 0.0
02 10:35 Calm 16.09 Overcast SCT050 SCT070 OVC090 9.7 7.5 86% 76.5 0.0
02 10:15 Calm 16.09 Light Rain SCT042 BKN050 OVC090 9.1 7.3 89% 76.5 0.0
02 09:55 NE 9 16.09 Light Rain SCT033 OVC042 8.7 6.9 89% 7 76.48 0.0 0.13 0.13
02 09:35 S 6 4.83 Rain SCT020 OVC033 9 4.5 74% 76.5 0.0 0.13
02 09:15 N 26 16.09 Overcast SCT020 OVC050 10.4 6.9 79% 76.48 0.0
02 08:55 NE 11 16.09 Overcast SCT050 OVC060 10.7 6.6 76% 76.43 0.0
02 08:35 E 9 16.09 Overcast OVC060 10.8 6.2 73% 76.4 0.0
02 08:15 E 11 16.09 Overcast BKN060 OVC110 10.6 6.4 75% 76.4 0.0
02 07:55 E 7 16.09 Overcast SCT050 SCT065 OVC110 10.4 7 80% 76.38 0.0
02 07:35 E 7 16.09 Overcast BKN055 BKN065 OVC110 9.9 6.9 82% 9 76.38 0.0
02 07:15 NE 6 16.09 Overcast BKN060 OVC100 9.5 6.6 82% 76.38 0.0
02 06:55 NE 9 16.09 Overcast SCT060 SCT080 OVC100 9.4 6.3 10.8 9.3 81% 8 76.35 0.0
02 06:35 NE 9 16.09 Overcast BKN070 BKN080 OVC110 9.5 6.2 80% 8 76.35 0.0
02 06:15 NE 7 16.09 Overcast SCT065 OVC075 9.5 6.5 82% 9 76.33 0.0
02 05:55 Calm 16.09 Overcast BKN065 OVC075 9.5 6.8 83% 76.33 0.0
02 05:35 Calm 16.09 Overcast OVC065 9.5 6.9 84% 76.33 0.0
02 05:15 Calm 16.09 Overcast OVC065 9.5 6.5 82% 76.3 0.0
02 04:55 Calm 16.09 Overcast OVC075 9.5 6.6 82% 76.3 0.0
02 04:35 Calm 16.09 Overcast SCT060 OVC075 9.5 6.6 82% 76.33 0.0
02 04:15 NE 7 16.09 Light Rain SCT050 OVC060 9.6 6.6 82% 9 76.33 0.0
02 03:55 Calm 16.09 Overcast BKN065 BKN080 OVC090 9.7 6.4 80% 76.33 0.0
02 03:35 Calm 16.09 Overcast BKN080 BKN090 OVC120 9.6 6.1 79% 76.3 0.0
02 03:15 E 6 16.09 Mostly Cloudy SCT070 BKN110 9.6 6.1 79% 76.33 0.0
02 02:55 NE 6 16.09 Mostly Cloudy SCT060 BKN070 BKN100 9.6 6.2 80% 76.33 0.0
02 02:35 NE 6 16.09 Overcast BKN070 OVC080 10.2 6.9 80% 76.33 0.0
02 02:15 Calm 16.09 Overcast OVC070 10.2 6.2 76% 76.33 0.0
02 01:55 Calm 16.09 Light Rain SCT050 BKN070 OVC110 10.5 6.3 75% 76.33 0.0
02 01:35 Calm 16.09 Overcast BKN070 OVC080 10.6 6.3 75% 76.33 0.0
02 01:15 Calm 16.09 Overcast BKN080 OVC110 10.8 6.2 73% 76.33 0.0
02 00:55 Calm 16.09 Overcast SCT070 BKN090 OVC120 10.9 6.1 14.9 9.5 73% 76.33 0.0
02 00:35 E 6 16.09 Light Drizzle SCT050 BKN070 OVC090 11 6 72% 76.35 0.0
02 00:15 NE 7 16.09 Overcast OVC070 11 6 72% 76.35 0.0
01 23:55 NE 6 16.09 Overcast BKN080 OVC090 11 5.2 68% 76.35 0.0
01 23:35 NE 11 16.09 Mostly Cloudy SCT070 BKN090 BKN120 9.6 7.3 86% 8 76.33 0.0
01 23:15 Calm 16.09 Partly Cloudy SCT120 9.7 6.8 82% 76.33 0.0
01 22:55 Calm 16.09 Partly Cloudy SCT080 10.3 5.7 73% 76.33 0.0
01 22:35 Calm 16.09 Overcast OVC080 10.5 7.1 80% 76.35 0.0
01 22:15 Calm 16.09 Overcast BKN090 OVC110 10.6 7.7 82% 76.35 0.0
01 21:55 Calm 16.09 Overcast BKN090 OVC120 10.4 6.9 79% 76.35 0.0
01 21:35 Calm 16.09 Partly Cloudy SCT090 SCT110 10.6 5.7 72% 76.35 0.0
01 21:15 Calm 16.09 Fair CLR 10.5 5.1 70% 76.33 0.0
01 20:55 Calm 16.09 Fair CLR 10.4 5.7 73% 76.3 0.0
01 20:35 E 6 16.09 Fair CLR 10.8 5.4 70% 76.3 0.0
01 20:15 Calm 16.09 Fair CLR 11.2 5.5 68% 76.28 0.0
01 19:55 Calm 16.09 Fair CLR 12.2 5.9 66% 76.25 0.0
01 19:35 Calm 16.09 Fair CLR 14 4.5 53% 76.25 0.0
01 19:15 Calm 16.09 Fair CLR 14.7 2.7 45% 76.23 0.0
01 18:55 NW 9 16.09 Fair CLR 15 2.6 16.3 14.2 44% 76.2 0.0
01 18:35 NW 9 G 26 16.09 Fair CLR 15.1 3 44% 76.2 0.0
01 18:15 NW 13 16.09 Fair CLR 15.5 2.5 42% 76.17 0.0
01 17:55 N 11 16.09 Partly Cloudy SCT100 15.6 2.9 43% 76.23 0.0
01 17:35 NW 15 16.09 Partly Cloudy SCT100 15.4 3.2 44% 76.25 0.0
01 17:15 N 7 G 17 16.09 Fair CLR 15.5 2.5 42% 76.25 0.0
01 16:55 N 15 16.09 Partly Cloudy SCT090 15.7 3.3 44% 76.25 0.0
01 16:35 NW 17 16.09 Mostly Cloudy SCT065 SCT075 BKN090 16 3.7 44% 76.28 0.0
01 16:15 NW 17 16.09 Partly Cloudy SCT060 SCT075 SCT090 15.2 2.8 44% 76.28 0.0
01 15:55 NW 17 16.09 Partly Cloudy SCT060 SCT090 14.8 3.4 47% 76.3 0.0
01 15:35 W 17 16.09 Mostly Cloudy BKN060 BKN075 16 3.6 44% 76.33 0.0
01 15:15 NW 19 16.09 Partly Cloudy SCT075 15.3 3.6 46% 76.35 0.0
01 14:55 NW 13 16.09 Partly Cloudy SCT050 SCT075 15.2 3.6 46% 76.35 0.0
01 14:35 N 15 16.09 Mostly Cloudy BKN050 BKN070 15.1 4.3 49% 76.35 0.0
01 14:15 N 17 16.09 Mostly Cloudy BKN050 BKN065 14.4 3.6 49% 76.35 0.0
01 13:55 N 15 G 31 16.09 Mostly Cloudy BKN050 BKN065 15.5 4.4 48% 76.38 0.0
01 13:35 N 22 G 30 16.09 Mostly Cloudy BKN050 BKN065 15 4.6 50% 76.38 0.0
01 13:15 NW 19 G 30 16.09 Mostly Cloudy BKN050 15.2 5.1 51% 76.38 0.0
01 12:55 NW 13 G 22 16.09 Mostly Cloudy BKN050 14.2 4.3 14.6 9 52% 76.38 0.0
Date Time (cdt) Wind (kph) Vis. (km) Weather Sky Cond. Air Dwpt Max. Min. Relative Humidity Wind Chill (°C) Heat Index (°C) altimeter (cm) sea level (mb) 1 hr 3 hr 6 hr
6 hour
Temperature (ºC) Pressure Precipitation (cm)